createdAt,value
2022-09-16T00:00:44.400Z,15.37
2022-09-16T00:01:46.630Z,15.26
2022-09-16T00:02:52.794Z,15.52
2022-09-16T00:03:56.618Z,15.05
2022-09-16T00:04:58.764Z,15.21
2022-09-16T00:06:00.877Z,15.26
2022-09-16T00:07:04.229Z,15.33
2022-09-16T00:08:06.961Z,15.20
2022-09-16T00:09:09.822Z,15.31
2022-09-16T00:10:12.051Z,15.16
2022-09-16T00:11:14.724Z,15.33
2022-09-16T00:12:16.844Z,15.26
2022-09-16T00:13:19.522Z,15.33
2022-09-16T00:14:21.645Z,15.49
2022-09-16T00:15:23.774Z,15.33
2022-09-16T00:16:27.393Z,15.60
2022-09-16T00:17:30.128Z,15.44
2022-09-16T00:18:32.240Z,15.49
2022-09-16T00:19:34.362Z,15.47
2022-09-16T00:20:36.489Z,15.54
2022-09-16T00:21:38.917Z,15.57
2022-09-16T00:22:41.068Z,15.39
2022-09-16T00:23:43.344Z,15.47
2022-09-16T00:24:45.632Z,15.52
2022-09-16T00:25:55.465Z,15.63
2022-09-16T00:26:57.642Z,15.48
2022-09-16T00:27:59.787Z,15.50
2022-09-16T00:29:02.680Z,15.57
2022-09-16T00:30:05.331Z,15.38
2022-09-16T00:31:07.505Z,15.43
2022-09-16T00:32:09.698Z,15.37
2022-09-16T00:33:11.860Z,15.32
2022-09-16T00:34:14.115Z,15.32
2022-09-16T00:35:16.245Z,15.14
2022-09-16T00:36:20.255Z,15.46
2022-09-16T00:37:22.449Z,15.22
2022-09-16T00:38:24.642Z,14.99
2022-09-16T00:39:26.773Z,15.21
2022-09-16T00:40:28.972Z,15.34
2022-09-16T00:41:34.728Z,15.26
2022-09-16T00:42:39.395Z,15.27
2022-09-16T00:43:51.750Z,15.62
2022-09-16T00:45:04.544Z,15.69
2022-09-16T00:46:06.680Z,15.33
2022-09-16T00:47:08.951Z,15.23
2022-09-16T00:48:20.739Z,15.62
2022-09-16T00:49:29.126Z,15.57
2022-09-16T00:50:40.667Z,15.57
2022-09-16T00:51:45.364Z,15.67
2022-09-16T00:52:49.693Z,15.61
2022-09-16T00:54:00.164Z,15.57
2022-09-16T00:55:06.783Z,15.80
2022-09-16T00:56:13.099Z,15.87
2022-09-16T00:57:16.087Z,15.70
2022-09-16T00:58:28.437Z,15.63
2022-09-16T00:59:35.674Z,15.82
2022-09-16T01:00:38.313Z,15.65
2022-09-16T01:01:44.424Z,15.65
2022-09-16T01:02:49.507Z,15.64
2022-09-16T01:03:55.522Z,15.80
2022-09-16T01:05:06.279Z,15.86
2022-09-16T01:06:10.797Z,15.63
2022-09-16T01:07:13.693Z,15.49
2022-09-16T01:08:15.942Z,15.30
2022-09-16T01:09:21.989Z,15.40
2022-09-16T01:10:26.276Z,15.48
2022-09-16T01:11:29.408Z,15.29
2022-09-16T01:12:33.377Z,15.48
2022-09-16T01:13:36.460Z,15.54
2022-09-16T01:14:54.199Z,15.27
2022-09-16T01:16:27.970Z,15.84
2022-09-16T01:17:42.392Z,15.47
2022-09-16T01:19:18.420Z,15.38
2022-09-16T01:20:39.316Z,15.61
2022-09-16T01:22:07.598Z,15.59
2022-09-16T01:23:57.061Z,15.85
2022-09-16T01:25:11.060Z,15.04
2022-09-16T01:26:16.106Z,14.82
2022-09-16T01:27:57.495Z,15.55
2022-09-16T01:29:18.466Z,15.57
2022-09-16T01:30:58.010Z,15.68
2022-09-16T01:32:02.779Z,15.20
2022-09-16T01:33:21.976Z,15.67
2022-09-16T01:34:33.859Z,15.34
2022-09-16T01:35:45.243Z,15.31
2022-09-16T01:37:08.276Z,15.37
2022-09-16T01:38:24.329Z,15.63
2022-09-16T01:39:35.298Z,15.77
2022-09-16T01:40:43.395Z,15.99
2022-09-16T01:42:14.270Z,15.87
2022-09-16T01:43:25.994Z,15.58
2022-09-16T01:44:40.030Z,15.50
2022-09-16T01:45:48.112Z,15.47
2022-09-16T01:47:04.623Z,15.54
2022-09-16T01:48:18.413Z,15.66
2022-09-16T01:49:34.077Z,15.72
2022-09-16T01:51:06.586Z,15.48
2022-09-16T01:52:11.769Z,15.77
2022-09-16T01:53:20.133Z,15.73
2022-09-16T01:54:36.572Z,15.90
2022-09-16T01:56:03.408Z,16.08
2022-09-16T01:57:27.387Z,15.58
2022-09-16T01:58:56.289Z,15.75
2022-09-16T02:00:06.567Z,15.57
2022-09-16T02:01:24.814Z,15.79
2022-09-16T02:02:43.421Z,15.63
2022-09-16T02:03:51.039Z,15.36
2022-09-16T02:04:56.564Z,15.25
2022-09-16T02:06:03.322Z,15.29
2022-09-16T02:07:09.370Z,15.15
2022-09-16T02:08:20.974Z,15.29
2022-09-16T02:09:30.195Z,15.26
2022-09-16T02:10:41.700Z,15.33
2022-09-16T02:11:47.425Z,15.25
2022-09-16T02:12:53.667Z,14.92
2022-09-16T02:14:03.659Z,15.15
2022-09-16T02:15:11.401Z,15.21
2022-09-16T02:16:57.723Z,15.36
2022-09-16T02:18:05.228Z,15.34
2022-09-16T02:19:12.498Z,15.31
2022-09-16T02:20:19.941Z,15.44
2022-09-16T02:21:25.393Z,15.30
2022-09-16T02:22:44.764Z,15.45
2022-09-16T02:23:51.622Z,15.45
2022-09-16T02:24:54.068Z,15.12
2022-09-16T02:25:58.995Z,15.43
2022-09-16T02:27:04.092Z,15.44
2022-09-16T02:28:13.156Z,15.67
2022-09-16T02:29:23.323Z,15.62
2022-09-16T02:30:25.448Z,15.19
2022-09-16T02:31:32.757Z,15.67
2022-09-16T02:32:39.780Z,15.58
2022-09-16T02:33:46.930Z,15.23
2022-09-16T02:34:51.802Z,15.16
2022-09-16T02:35:55.798Z,15.52
2022-09-16T02:37:04.259Z,15.55
2022-09-16T02:38:14.487Z,15.33
2022-09-16T02:39:22.619Z,15.58
2022-09-16T02:40:30.297Z,15.30
2022-09-16T02:41:32.729Z,15.26
2022-09-16T02:42:34.976Z,15.27
2022-09-16T02:43:37.122Z,15.13
2022-09-16T02:44:39.725Z,15.16
2022-09-16T02:46:20.261Z,15.64
2022-09-16T02:47:38.632Z,15.55
2022-09-16T02:48:56.885Z,15.48
2022-09-16T02:50:13.281Z,15.63
2022-09-16T02:51:50.584Z,15.56
2022-09-16T02:53:21.229Z,15.64
2022-09-16T02:54:33.208Z,15.57
2022-09-16T02:55:42.558Z,15.39
2022-09-16T02:56:44.800Z,15.06
2022-09-16T02:57:47.208Z,14.86
2022-09-16T02:58:49.523Z,15.09
2022-09-16T02:59:51.790Z,14.98
2022-09-16T03:00:55.298Z,15.35
2022-09-16T03:01:59.138Z,15.34
2022-09-16T03:03:01.666Z,14.80
2022-09-16T03:04:04.328Z,15.05
2022-09-16T03:05:07.603Z,14.99
2022-09-16T03:06:09.774Z,15.03
2022-09-16T03:07:13.517Z,14.99
2022-09-16T03:08:15.701Z,15.00
2022-09-16T03:09:18.536Z,15.21
2022-09-16T03:10:25.655Z,15.24
2022-09-16T03:11:45.758Z,15.46
2022-09-16T03:13:05.727Z,15.41
2022-09-16T03:14:10.811Z,15.63
2022-09-16T03:15:22.198Z,15.44
2022-09-16T03:16:54.669Z,15.52
2022-09-16T03:18:17.232Z,15.29
2022-09-16T03:19:31.503Z,15.33
2022-09-16T03:20:33.546Z,14.91
2022-09-16T03:22:04.730Z,15.63
2022-09-16T03:23:32.913Z,15.56
2022-09-16T03:24:40.994Z,15.38
2022-09-16T03:26:10.359Z,15.45
2022-09-16T03:27:19.158Z,15.31
2022-09-16T03:28:35.621Z,15.14
2022-09-16T03:29:48.507Z,15.26
2022-09-16T03:31:08.029Z,15.25
2022-09-16T03:32:10.174Z,15.02
2022-09-16T03:33:22.607Z,15.32
2022-09-16T03:34:35.458Z,15.48
2022-09-16T03:35:44.854Z,15.06
2022-09-16T03:37:09.295Z,15.32
2022-09-16T03:38:13.630Z,15.29
2022-09-16T03:39:16.135Z,15.09
2022-09-16T03:40:19.574Z,14.91
2022-09-16T03:41:22.292Z,14.86
2022-09-16T03:42:24.592Z,14.86
2022-09-16T03:43:26.739Z,14.92
2022-09-16T03:44:33.751Z,15.32
2022-09-16T03:45:35.888Z,14.97
2022-09-16T03:46:38.076Z,14.79
2022-09-16T03:47:40.631Z,14.83
2022-09-16T03:48:42.782Z,14.70
2022-09-16T03:49:44.931Z,14.61
2022-09-16T03:50:47.056Z,14.65
2022-09-16T03:51:49.176Z,14.71
2022-09-16T03:52:51.307Z,14.78
2022-09-16T03:53:54.091Z,14.91
2022-09-16T03:54:56.302Z,14.78
2022-09-16T03:55:58.430Z,14.95
2022-09-16T03:57:00.767Z,14.77
2022-09-16T03:58:03.087Z,14.60
2022-09-16T03:59:05.190Z,14.71
2022-09-16T04:00:08.573Z,14.79
2022-09-16T04:01:16.437Z,14.82
2022-09-16T04:02:18.587Z,14.76
2022-09-16T04:03:20.784Z,14.74
2022-09-16T04:04:23.111Z,14.87
2022-09-16T04:05:25.391Z,14.91
2022-09-16T04:06:27.682Z,14.68
2022-09-16T04:07:33.347Z,15.01
2022-09-16T04:08:35.865Z,14.60
2022-09-16T04:09:38.117Z,14.52
2022-09-16T04:10:40.289Z,14.45
2022-09-16T04:11:43.094Z,14.70
2022-09-16T04:12:45.640Z,14.79
2022-09-16T04:13:47.761Z,14.80
2022-09-16T04:14:50.793Z,14.60
2022-09-16T04:15:53.187Z,14.60
2022-09-16T04:16:55.527Z,14.64
2022-09-16T04:17:57.616Z,14.68
2022-09-16T04:19:00.157Z,14.70
2022-09-16T04:20:02.636Z,14.75
2022-09-16T04:21:05.008Z,14.66
2022-09-16T04:22:07.127Z,14.59
2022-09-16T04:23:09.329Z,14.49
2022-09-16T04:24:13.422Z,14.59
2022-09-16T04:25:15.721Z,14.57
2022-09-16T04:26:18.213Z,14.37
2022-09-16T04:27:20.365Z,14.39
2022-09-16T04:28:22.980Z,14.35
2022-09-16T04:29:25.211Z,14.44
2022-09-16T04:30:27.610Z,14.42
2022-09-16T04:31:29.725Z,14.21
2022-09-16T04:32:31.819Z,14.34
2022-09-16T04:33:35.554Z,14.59
2022-09-16T04:34:37.685Z,14.33
2022-09-16T04:35:39.827Z,14.21
2022-09-16T04:36:41.935Z,14.29
2022-09-16T04:37:44.029Z,14.35
2022-09-16T04:38:48.162Z,14.57
2022-09-16T04:39:50.295Z,14.32
2022-09-16T04:40:54.302Z,14.25
2022-09-16T04:41:56.626Z,14.29
2022-09-16T04:42:58.780Z,14.12
2022-09-16T04:44:01.058Z,14.35
2022-09-16T04:45:03.475Z,14.37
2022-09-16T04:46:06.899Z,14.32
2022-09-16T04:47:09.074Z,14.15
2022-09-16T04:48:11.235Z,14.27
2022-09-16T04:49:13.832Z,14.32
2022-09-16T04:50:16.110Z,14.27
2022-09-16T04:51:28.488Z,14.17
2022-09-16T04:52:31.196Z,14.09
2022-09-16T04:53:33.396Z,13.93
2022-09-16T04:54:35.559Z,13.91
2022-09-16T04:55:37.819Z,13.90
2022-09-16T04:56:39.971Z,14.12
2022-09-16T04:57:42.377Z,14.09
2022-09-16T04:58:46.469Z,14.28
2022-09-16T04:59:48.647Z,14.17
2022-09-16T05:00:51.558Z,14.31
2022-09-16T05:01:53.684Z,14.31
2022-09-16T05:02:56.014Z,14.09
2022-09-16T05:04:00.703Z,14.33
2022-09-16T05:05:02.801Z,13.93
2022-09-16T05:06:06.985Z,14.04
2022-09-16T05:07:09.078Z,14.04
2022-09-16T05:08:11.460Z,14.07
2022-09-16T05:09:13.754Z,14.14
2022-09-16T05:10:15.902Z,14.24
2022-09-16T05:11:21.808Z,14.49
2022-09-16T05:12:24.256Z,14.20
2022-09-16T05:13:26.374Z,14.20
2022-09-16T05:14:28.617Z,14.27
2022-09-16T05:15:30.877Z,14.16
2022-09-16T05:16:33.620Z,14.09
2022-09-16T05:17:51.929Z,13.95
2022-09-16T05:18:56.540Z,14.14
2022-09-16T05:19:58.724Z,14.08
2022-09-16T05:21:02.114Z,14.24
2022-09-16T05:22:07.312Z,13.98
2022-09-16T05:23:10.309Z,14.08
2022-09-16T05:24:13.543Z,14.26
2022-09-16T05:25:15.723Z,14.29
2022-09-16T05:26:20.639Z,14.61
2022-09-16T05:27:22.770Z,14.51
2022-09-16T05:28:24.894Z,14.61
2022-09-16T05:29:27.149Z,14.58
2022-09-16T05:30:29.335Z,14.48
2022-09-16T05:31:34.405Z,14.69
2022-09-16T05:32:36.518Z,14.55
2022-09-16T05:33:40.157Z,14.45
2022-09-16T05:34:42.327Z,14.21
2022-09-16T05:35:45.763Z,14.37
2022-09-16T05:36:49.402Z,14.46
2022-09-16T05:37:51.611Z,14.31
2022-09-16T05:39:20.805Z,14.21
2022-09-16T05:40:16.205Z,13.96
2022-09-16T05:41:18.498Z,14.27
2022-09-16T05:42:20.767Z,14.22
2022-09-16T05:43:22.926Z,14.39
2022-09-16T05:44:26.529Z,14.58
2022-09-16T05:45:32.232Z,14.19
2022-09-16T05:46:35.189Z,14.45
2022-09-16T05:47:37.350Z,14.43
2022-09-16T05:48:39.504Z,14.59
2022-09-16T05:49:41.665Z,14.38
2022-09-16T05:50:57.773Z,14.92
2022-09-16T05:51:59.860Z,14.48
2022-09-16T05:53:01.988Z,14.59
2022-09-16T05:54:04.212Z,14.64
2022-09-16T05:55:06.679Z,14.79
2022-09-16T05:56:12.611Z,14.66
2022-09-16T05:57:14.739Z,14.51
2022-09-16T05:58:16.849Z,14.28
2022-09-16T05:59:19.172Z,14.14
2022-09-16T06:00:21.330Z,14.46
2022-09-16T06:01:27.100Z,14.65
2022-09-16T06:02:29.349Z,14.27
2022-09-16T06:03:32.687Z,14.73
2022-09-16T06:04:35.621Z,14.56
2022-09-16T06:05:37.733Z,14.72
2022-09-16T06:06:42.939Z,14.94
2022-09-16T06:07:45.053Z,14.57
2022-09-16T06:08:47.170Z,14.77
2022-09-16T06:09:49.456Z,14.92
2022-09-16T06:10:51.608Z,14.66
2022-09-16T06:11:59.387Z,14.76
2022-09-16T06:13:03.998Z,14.54
2022-09-16T06:14:06.553Z,14.66
2022-09-16T06:15:10.214Z,15.01
2022-09-16T06:16:14.527Z,15.03
2022-09-16T06:17:16.703Z,14.47
2022-09-16T06:18:19.190Z,14.92
2022-09-16T06:19:21.410Z,15.03
2022-09-16T06:20:23.521Z,15.15
2022-09-16T06:21:26.190Z,15.48
2022-09-16T06:22:30.634Z,15.90
2022-09-16T06:23:33.496Z,15.78
2022-09-16T06:24:35.643Z,15.74
2022-09-16T06:25:37.759Z,16.00
2022-09-16T06:26:41.611Z,16.49
2022-09-16T06:27:43.780Z,16.02
2022-09-16T06:28:47.154Z,16.63
2022-09-16T06:29:49.288Z,16.32
2022-09-16T06:31:01.738Z,16.33
2022-09-16T06:32:03.899Z,15.91
2022-09-16T06:33:06.834Z,16.16
2022-09-16T06:34:14.385Z,16.20
2022-09-16T06:35:16.546Z,16.04
2022-09-16T06:36:21.944Z,16.38
2022-09-16T06:37:24.116Z,16.26
2022-09-16T06:38:26.270Z,16.58
2022-09-16T06:39:28.375Z,17.18
2022-09-16T06:40:30.492Z,17.73
2022-09-16T06:41:34.552Z,18.19
2022-09-16T06:42:36.724Z,18.35
2022-09-16T06:43:39.842Z,18.68
2022-09-16T06:44:42.070Z,18.37
2022-09-16T06:45:44.296Z,18.60
2022-09-16T06:46:46.627Z,18.81
2022-09-16T06:47:48.942Z,19.06
2022-09-16T06:48:53.109Z,19.71
2022-09-16T06:49:55.226Z,19.57
2022-09-16T06:51:02.306Z,20.33
2022-09-16T06:52:04.399Z,19.87
2022-09-16T06:53:06.583Z,20.13
2022-09-16T06:54:09.949Z,20.38
2022-09-16T06:55:12.092Z,19.81
2022-09-16T06:56:16.896Z,20.23
2022-09-16T06:57:20.246Z,19.90
2022-09-16T06:58:22.442Z,20.31
2022-09-16T06:59:24.522Z,19.95
2022-09-16T07:00:26.738Z,20.30
2022-09-16T07:01:30.900Z,20.25
2022-09-16T07:02:33.474Z,20.18
2022-09-16T07:03:44.039Z,21.42
2022-09-16T07:04:49.964Z,21.56
2022-09-16T07:06:01.728Z,20.89
2022-09-16T07:07:11.214Z,20.94
2022-09-16T07:08:13.387Z,19.97
2022-09-16T07:09:15.478Z,20.34
2022-09-16T07:10:17.653Z,19.12
2022-09-16T07:11:21.611Z,19.12
2022-09-16T07:12:23.838Z,18.72
2022-09-16T07:13:26.563Z,17.99
2022-09-16T07:14:29.692Z,18.07
2022-09-16T07:15:31.862Z,18.23
2022-09-16T07:16:34.044Z,18.62
2022-09-16T07:17:36.666Z,19.12
2022-09-16T07:18:39.078Z,19.52
2022-09-16T07:19:42.341Z,19.82
2022-09-16T07:20:44.645Z,19.89
2022-09-16T07:21:46.763Z,20.38
2022-09-16T07:22:50.763Z,20.82
2022-09-16T07:23:55.196Z,21.86
2022-09-16T07:24:57.371Z,21.75
2022-09-16T07:26:14.537Z,21.98
2022-09-16T07:27:16.745Z,22.32
2022-09-16T07:28:19.801Z,21.91
2022-09-16T07:29:22.001Z,22.02
2022-09-16T07:30:24.093Z,21.24
2022-09-16T07:31:28.696Z,22.54
2022-09-16T07:32:30.884Z,22.40
2022-09-16T07:33:37.518Z,23.05
2022-09-16T07:34:39.686Z,22.54
2022-09-16T07:35:41.785Z,22.82
2022-09-16T07:36:48.573Z,22.82
2022-09-16T07:37:50.732Z,21.55
2022-09-16T07:38:54.791Z,21.89
2022-09-16T07:39:57.078Z,21.48
2022-09-16T07:41:11.359Z,22.44
2022-09-16T07:42:13.563Z,22.42
2022-09-16T07:43:15.683Z,21.40
2022-09-16T07:44:20.159Z,21.85
2022-09-16T07:45:22.275Z,20.89
2022-09-16T07:46:25.482Z,20.77
2022-09-16T07:47:27.639Z,21.42
2022-09-16T07:48:34.828Z,20.94
2022-09-16T07:49:37.522Z,21.39
2022-09-16T07:50:39.631Z,21.81
2022-09-16T07:51:42.295Z,21.98
2022-09-16T07:53:48.214Z,22.72
2022-09-16T07:54:50.634Z,22.51
2022-09-16T07:55:53.608Z,23.28
2022-09-16T07:56:57.631Z,23.78
2022-09-16T07:57:59.778Z,23.68
2022-09-16T07:59:03.691Z,23.01
2022-09-16T08:00:06.416Z,23.53
2022-09-16T08:01:15.884Z,23.97
2022-09-16T08:02:18.200Z,23.50
2022-09-16T08:03:20.628Z,23.07
2022-09-16T08:04:22.847Z,23.64
2022-09-16T08:05:25.118Z,24.09
2022-09-16T08:06:31.353Z,24.46
2022-09-16T08:07:33.618Z,24.22
2022-09-16T08:08:35.750Z,24.67
2022-09-16T08:09:41.315Z,25.24
2022-09-16T08:10:56.341Z,25.74
2022-09-16T08:11:59.096Z,25.24
2022-09-16T08:13:01.207Z,25.49
2022-09-16T08:14:03.896Z,25.45
2022-09-16T08:15:06.893Z,25.48
2022-09-16T08:16:12.405Z,25.30
2022-09-16T08:17:14.850Z,24.32
2022-09-16T08:18:17.184Z,24.52
2022-09-16T08:19:20.890Z,23.00
2022-09-16T08:20:24.186Z,23.61
2022-09-16T08:21:28.999Z,23.91
2022-09-16T08:22:31.092Z,22.85
2022-09-16T08:23:33.308Z,23.03
2022-09-16T08:24:35.720Z,23.05
2022-09-16T08:25:38.260Z,23.27
2022-09-16T08:26:40.434Z,23.86
2022-09-16T08:27:42.783Z,23.29
2022-09-16T08:29:04.926Z,23.17
2022-09-16T08:30:10.227Z,24.23
2022-09-16T08:31:13.121Z,24.38
2022-09-16T08:32:15.311Z,24.53
2022-09-16T08:33:21.091Z,24.00
2022-09-16T08:34:23.401Z,23.37
2022-09-16T08:35:26.605Z,24.02
2022-09-16T08:36:28.788Z,23.20
2022-09-16T08:37:31.175Z,23.10
2022-09-16T08:38:33.892Z,23.33
2022-09-16T08:39:36.170Z,24.04
2022-09-16T08:40:38.484Z,24.95
2022-09-16T08:42:05.107Z,25.57
2022-09-16T08:43:56.518Z,24.93
2022-09-16T08:44:59.411Z,24.45
2022-09-16T08:46:17.565Z,25.48
2022-09-16T08:47:44.630Z,24.71
2022-09-16T08:48:51.339Z,23.64
2022-09-16T08:49:54.443Z,23.84
2022-09-16T08:50:58.836Z,22.62
2022-09-16T08:52:08.539Z,22.94
2022-09-16T08:53:45.920Z,24.06
2022-09-16T08:54:54.981Z,23.64
2022-09-16T08:55:58.619Z,23.87
2022-09-16T08:57:04.851Z,24.85
2022-09-16T08:58:17.762Z,23.62
2022-09-16T08:59:24.881Z,23.83
2022-09-16T09:00:27.080Z,23.92
2022-09-16T09:01:32.837Z,24.34
2022-09-16T09:02:59.563Z,24.29
2022-09-16T09:04:03.148Z,23.90
2022-09-16T09:05:19.086Z,24.70
2022-09-16T09:06:40.743Z,23.96
2022-09-16T09:07:52.900Z,24.56
2022-09-16T09:09:09.640Z,25.21
2022-09-16T09:10:20.884Z,24.61
2022-09-16T09:11:50.978Z,22.79
2022-09-16T09:13:14.540Z,22.22
2022-09-16T09:14:54.517Z,21.92
2022-09-16T09:16:09.440Z,22.22
2022-09-16T09:17:59.643Z,23.94
2022-09-16T09:19:23.927Z,24.12
2022-09-16T09:20:44.549Z,23.74
2022-09-16T09:22:08.030Z,24.73
2022-09-16T09:23:33.037Z,24.74
2022-09-16T09:24:38.162Z,24.61
2022-09-16T09:25:46.681Z,25.86
2022-09-16T09:26:58.232Z,26.18
2022-09-16T09:28:32.665Z,26.84
2022-09-16T09:30:03.239Z,25.31
2022-09-16T09:31:12.637Z,24.77
2022-09-16T09:32:49.448Z,25.55
2022-09-16T09:34:25.373Z,24.59
2022-09-16T09:35:47.315Z,23.83
2022-09-16T09:37:23.541Z,23.38
2022-09-16T09:38:58.074Z,22.76
2022-09-16T09:40:25.408Z,22.68
2022-09-16T09:41:37.004Z,22.30
2022-09-16T09:42:48.013Z,22.98
2022-09-16T09:44:01.225Z,24.06
2022-09-16T09:45:25.052Z,24.67
2022-09-16T09:46:41.373Z,23.46
2022-09-16T09:48:05.149Z,23.25
2022-09-16T09:49:13.945Z,24.32
2022-09-16T09:50:25.382Z,23.01
2022-09-16T09:51:36.076Z,23.22
2022-09-16T09:52:44.333Z,23.89
2022-09-16T09:53:53.920Z,24.55
2022-09-16T09:55:06.545Z,24.61
2022-09-16T09:56:11.420Z,24.17
2022-09-16T09:57:39.462Z,24.10
2022-09-16T09:58:57.878Z,24.24
2022-09-16T10:00:17.247Z,24.02
2022-09-16T10:01:19.730Z,23.04
2022-09-16T10:02:23.489Z,23.32
2022-09-16T10:03:27.568Z,23.22
2022-09-16T10:04:38.372Z,22.19
2022-09-16T10:05:41.373Z,21.19
2022-09-16T10:06:46.041Z,21.72
2022-09-16T10:07:49.618Z,20.20
2022-09-16T10:08:54.254Z,20.30
2022-09-16T10:10:02.760Z,20.01
2022-09-16T10:11:17.686Z,19.44
2022-09-16T10:12:46.311Z,18.93
2022-09-16T10:13:51.552Z,19.39
2022-09-16T10:14:53.779Z,20.00
2022-09-16T10:16:10.678Z,20.58
2022-09-16T10:17:17.832Z,20.03
2022-09-16T10:18:29.910Z,19.70
2022-09-16T10:19:39.299Z,19.73
2022-09-16T10:20:54.510Z,19.16
2022-09-16T10:22:22.482Z,19.39
2022-09-16T10:23:29.629Z,20.27
2022-09-16T10:24:38.918Z,21.32
2022-09-16T10:25:42.746Z,22.24
2022-09-16T10:26:44.893Z,22.23
2022-09-16T10:28:01.723Z,23.47
2022-09-16T10:29:16.562Z,24.74
2022-09-16T10:31:39.307Z,24.24
2022-09-16T10:32:56.533Z,24.60
2022-09-16T10:34:00.504Z,25.56
2022-09-16T10:35:07.437Z,26.30
2022-09-16T10:36:19.024Z,26.90
2022-09-16T10:37:21.972Z,25.13
2022-09-16T10:38:34.753Z,25.93
2022-09-16T10:39:38.673Z,24.90
2022-09-16T10:40:52.758Z,25.51
2022-09-16T10:41:54.996Z,24.46
2022-09-16T10:43:03.527Z,24.51
2022-09-16T10:44:25.171Z,24.77
2022-09-16T10:45:30.014Z,25.11
2022-09-16T10:46:32.738Z,24.45
2022-09-16T10:47:36.313Z,25.05
2022-09-16T10:48:42.567Z,25.16
2022-09-16T10:49:51.115Z,25.75
2022-09-16T10:50:54.288Z,25.67
2022-09-16T10:52:07.413Z,25.81
2022-09-16T10:53:39.125Z,25.36
2022-09-16T10:54:41.744Z,25.31
2022-09-16T10:55:43.915Z,25.26
2022-09-16T10:56:51.875Z,24.79
2022-09-16T10:58:06.709Z,25.19
2022-09-16T10:59:13.788Z,24.60
2022-09-16T11:00:17.682Z,23.82
2022-09-16T11:01:46.676Z,23.02
2022-09-16T11:03:27.356Z,23.55
2022-09-16T11:04:42.822Z,21.76
2022-09-16T11:05:59.949Z,21.36
2022-09-16T11:07:14.297Z,20.80
2022-09-16T11:08:35.137Z,20.55
2022-09-16T11:10:06.222Z,18.75
2022-09-16T11:11:47.305Z,17.32
2022-09-16T11:13:08.003Z,17.56
2022-09-16T11:14:31.676Z,17.30
2022-09-16T11:15:40.664Z,17.40
2022-09-16T11:16:52.144Z,17.74
2022-09-16T11:18:07.865Z,17.11
2022-09-16T11:19:21.908Z,17.83
2022-09-16T11:20:29.860Z,18.54
2022-09-16T11:21:50.049Z,18.70
2022-09-16T11:23:53.989Z,19.53
2022-09-16T11:25:21.004Z,20.29
2022-09-16T11:26:52.350Z,19.63
2022-09-16T11:28:14.240Z,20.84
2022-09-16T11:29:27.276Z,21.85
2022-09-16T11:30:40.282Z,21.01
2022-09-16T11:31:54.537Z,21.96
2022-09-16T11:32:59.775Z,21.64
2022-09-16T11:34:08.926Z,22.81
2022-09-16T11:35:23.174Z,23.21
2022-09-16T11:36:31.145Z,23.07
2022-09-16T11:37:51.750Z,22.90
2022-09-16T11:39:19.950Z,23.19
2022-09-16T11:40:47.954Z,22.17
2022-09-16T11:42:01.627Z,22.22
2022-09-16T11:43:22.447Z,22.79
2022-09-16T11:44:47.684Z,23.45
2022-09-16T11:45:57.054Z,23.54
2022-09-16T11:47:14.316Z,22.67
2022-09-16T11:48:35.000Z,23.15
2022-09-16T11:50:01.562Z,22.99
2022-09-16T11:51:06.772Z,23.28
2022-09-16T11:52:14.813Z,23.29
2022-09-16T11:53:58.286Z,24.13
2022-09-16T11:55:00.658Z,22.06
2022-09-16T11:56:13.381Z,21.99
2022-09-16T11:57:19.569Z,22.21
2022-09-16T11:58:38.288Z,22.11
2022-09-16T12:00:09.755Z,21.43
2022-09-16T12:01:42.843Z,21.42
2022-09-16T12:03:00.184Z,21.52
2022-09-16T12:04:49.712Z,23.10
2022-09-16T12:06:04.624Z,23.25
2022-09-16T12:07:41.780Z,23.99
2022-09-16T12:08:56.329Z,25.27
2022-09-16T12:10:23.831Z,25.20
2022-09-16T12:11:36.570Z,24.99
2022-09-16T12:12:44.622Z,23.55
2022-09-16T12:14:05.472Z,22.90
2022-09-16T12:15:26.203Z,23.03
2022-09-16T12:16:54.204Z,22.85
2022-09-16T12:18:03.693Z,21.97
2022-09-16T12:19:14.329Z,22.69
2022-09-16T12:20:26.581Z,23.12
2022-09-16T12:21:37.676Z,22.52
2022-09-16T12:22:50.710Z,23.43
2022-09-16T12:24:04.358Z,22.05
2022-09-16T12:25:26.545Z,22.71
2022-09-16T12:26:41.366Z,22.76
2022-09-16T12:27:55.789Z,22.00
2022-09-16T12:29:11.825Z,23.00
2022-09-16T12:30:29.113Z,23.21
2022-09-16T12:31:39.124Z,22.31
2022-09-16T12:32:55.418Z,22.44
2022-09-16T12:34:12.681Z,23.09
2022-09-16T12:35:25.526Z,22.63
2022-09-16T12:36:32.466Z,23.02
2022-09-16T12:37:40.284Z,21.64
2022-09-16T12:38:45.285Z,21.42
2022-09-16T12:39:50.026Z,21.37
2022-09-16T12:41:23.175Z,22.13
2022-09-16T12:43:03.514Z,22.55
2022-09-16T12:44:35.742Z,21.94
2022-09-16T12:46:03.671Z,22.67
2022-09-16T12:47:37.832Z,22.32
2022-09-16T12:48:59.062Z,22.42
2022-09-16T12:50:40.103Z,22.00
2022-09-16T12:52:06.225Z,21.67
2022-09-16T12:53:23.547Z,21.37
2022-09-16T12:55:04.129Z,20.87
2022-09-16T12:56:33.819Z,21.15
2022-09-16T12:57:59.358Z,21.08
2022-09-16T12:59:04.125Z,20.12
2022-09-16T13:00:14.560Z,20.61
2022-09-16T13:01:33.559Z,19.83
2022-09-16T13:02:56.394Z,19.50
2022-09-16T13:04:14.400Z,19.77
2022-09-16T13:05:23.085Z,19.36
2022-09-16T13:06:38.295Z,19.71
2022-09-16T13:07:42.080Z,19.45
2022-09-16T13:08:44.638Z,18.90
2022-09-16T13:09:47.502Z,19.30
2022-09-16T13:11:47.204Z,20.12
2022-09-16T13:12:40.797Z,19.22
2022-09-16T13:13:52.537Z,19.80
2022-09-16T13:15:04.933Z,20.26
2022-09-16T13:16:09.336Z,19.51
2022-09-16T13:17:12.739Z,19.26
2022-09-16T13:18:17.871Z,19.56
2022-09-16T13:19:39.443Z,19.84
2022-09-16T13:20:56.526Z,19.75
2022-09-16T13:22:06.223Z,19.80
2022-09-16T13:23:21.638Z,19.74
2022-09-16T13:24:38.681Z,19.25
2022-09-16T13:25:51.188Z,19.53
2022-09-16T13:26:53.653Z,18.97
2022-09-16T13:28:04.258Z,19.47
2022-09-16T13:29:26.642Z,19.58
2022-09-16T13:30:38.552Z,19.84
2022-09-16T13:31:48.472Z,19.68
2022-09-16T13:32:50.736Z,19.73
2022-09-16T13:34:03.879Z,19.83
2022-09-16T13:35:18.193Z,19.61
2022-09-16T13:36:20.333Z,18.90
2022-09-16T13:37:28.822Z,19.38
2022-09-16T13:38:42.767Z,19.34
2022-09-16T13:39:49.680Z,19.17
2022-09-16T13:41:02.858Z,19.47
2022-09-16T13:42:25.315Z,19.24
2022-09-16T13:43:58.021Z,19.32
2022-09-16T13:45:00.148Z,18.90
2022-09-16T13:46:16.829Z,18.90
2022-09-16T13:47:31.579Z,18.85
2022-09-16T13:48:49.305Z,19.30
2022-09-16T13:50:14.845Z,18.84
2022-09-16T13:51:20.181Z,19.36
2022-09-16T13:52:28.838Z,19.12
2022-09-16T13:53:34.087Z,19.30
2022-09-16T13:55:06.180Z,19.42
2022-09-16T13:56:13.781Z,19.23
2022-09-16T13:57:40.599Z,18.88
2022-09-16T13:59:01.530Z,19.17
2022-09-16T14:00:23.875Z,18.33
2022-09-16T14:01:59.991Z,18.15
2022-09-16T14:03:21.229Z,18.15
2022-09-16T14:04:41.129Z,18.19
2022-09-16T14:06:15.506Z,18.23
2022-09-16T14:07:25.715Z,18.12
2022-09-16T14:08:53.989Z,18.74
2022-09-16T14:09:58.781Z,17.89
2022-09-16T14:11:25.329Z,18.44
2022-09-16T14:12:57.740Z,18.39
2022-09-16T14:14:30.006Z,18.53
2022-09-16T14:15:56.320Z,18.32
2022-09-16T14:17:03.189Z,18.11
2022-09-16T14:18:07.023Z,17.64
2022-09-16T14:19:12.275Z,18.15
2022-09-16T14:20:17.936Z,17.81
2022-09-16T14:21:23.703Z,18.07
2022-09-16T14:22:27.637Z,17.45
2022-09-16T14:23:31.550Z,17.45
2022-09-16T14:24:42.288Z,17.50
2022-09-16T14:25:44.670Z,17.19
2022-09-16T14:26:52.336Z,17.32
2022-09-16T14:28:17.893Z,18.04
2022-09-16T14:29:21.103Z,17.17
2022-09-16T14:30:23.372Z,17.36
2022-09-16T14:31:37.284Z,17.20
2022-09-16T14:32:49.072Z,17.41
2022-09-16T14:33:56.896Z,17.52
2022-09-16T14:35:10.275Z,17.37
2022-09-16T14:36:38.906Z,17.68
2022-09-16T14:37:46.372Z,17.64
2022-09-16T14:38:55.108Z,17.70
2022-09-16T14:40:07.426Z,17.27
2022-09-16T14:41:13.026Z,17.23
2022-09-16T14:42:20.805Z,17.28
2022-09-16T14:43:23.237Z,16.60
2022-09-16T14:44:40.701Z,16.84
2022-09-16T14:45:48.533Z,16.93
2022-09-16T14:47:39.834Z,16.80
2022-09-16T14:48:46.603Z,16.33
2022-09-16T14:49:52.484Z,16.59
2022-09-16T14:50:55.546Z,16.55
2022-09-16T14:52:02.154Z,16.31
2022-09-16T14:53:09.105Z,16.18
2022-09-16T14:54:23.109Z,16.21
2022-09-16T14:55:31.106Z,16.14
2022-09-16T14:56:33.417Z,15.78
2022-09-16T14:57:35.634Z,15.48
2022-09-16T14:58:38.147Z,15.61
2022-09-16T14:59:44.396Z,15.88
2022-09-16T15:00:54.922Z,16.19